sensor_id;sensor_type;location;lat;lon;timestamp;pressure;altitude;pressure_sealevel;temperature;humidity
61357;BME280;47227;46.752;23.576;2023-03-25T00:07:34;95604.09;;;11.17;46.37
61357;BME280;47227;46.752;23.576;2023-03-25T00:10:25;95597.23;;;11.15;45.79
61357;BME280;47227;46.752;23.576;2023-03-25T00:13:33;95594.66;;;11.14;45.61
61357;BME280;47227;46.752;23.576;2023-03-25T00:16:42;95593.81;;;11.14;45.64
61357;BME280;47227;46.752;23.576;2023-03-25T00:19:43;95592.61;;;11.11;45.74
61357;BME280;47227;46.752;23.576;2023-03-25T00:22:39;95588.01;;;11.07;46.53
61357;BME280;47227;46.752;23.576;2023-03-25T00:25:11;95585.86;;;11.04;46.24
61357;BME280;47227;46.752;23.576;2023-03-25T00:27:44;95580.67;;;11.03;45.73
61357;BME280;47227;46.752;23.576;2023-03-25T00:30:14;95578.35;;;11.05;45.78
61357;BME280;47227;46.752;23.576;2023-03-25T00:32:44;95574.52;;;11.05;46.47
61357;BME280;47227;46.752;23.576;2023-03-25T00:35:18;95569.11;;;11.06;46.20
61357;BME280;47227;46.752;23.576;2023-03-25T00:37:48;95567.85;;;11.07;46.37
61357;BME280;47227;46.752;23.576;2023-03-25T00:40:19;95558.88;;;11.08;46.10
61357;BME280;47227;46.752;23.576;2023-03-25T00:42:47;95557.13;;;11.10;46.03
61357;BME280;47227;46.752;23.576;2023-03-25T00:45:17;95554.40;;;11.12;46.53
61357;BME280;47227;46.752;23.576;2023-03-25T00:47:45;95554.08;;;11.14;46.52
61357;BME280;47227;46.752;23.576;2023-03-25T00:50:13;95551.39;;;11.16;46.51
61357;BME280;47227;46.752;23.576;2023-03-25T00:52:41;95543.52;;;11.18;46.25
61357;BME280;47227;46.752;23.576;2023-03-25T00:55:09;95540.04;;;11.19;46.26
61357;BME280;47227;46.752;23.576;2023-03-25T00:57:37;95535.52;;;11.20;46.17
61357;BME280;47227;46.752;23.576;2023-03-25T01:00:07;95531.26;;;11.22;46.04
61357;BME280;47227;46.752;23.576;2023-03-25T01:02:37;95531.83;;;11.22;46.22
61357;BME280;47227;46.752;23.576;2023-03-25T01:05:09;95531.16;;;11.20;46.54
61357;BME280;47227;46.752;23.576;2023-03-25T01:07:40;95527.23;;;11.18;46.71
61357;BME280;47227;46.752;23.576;2023-03-25T01:10:09;95526.08;;;11.16;46.23
61357;BME280;47227;46.752;23.576;2023-03-25T01:12:38;95520.78;;;11.16;45.95
61357;BME280;47227;46.752;23.576;2023-03-25T01:15:08;95516.90;;;11.15;45.79
61357;BME280;47227;46.752;23.576;2023-03-25T01:17:36;95515.17;;;11.14;45.97
61357;BME280;47227;46.752;23.576;2023-03-25T01:20:06;95508.52;;;11.12;45.89
61357;BME280;47227;46.752;23.576;2023-03-25T01:22:36;95507.90;;;11.10;45.65
61357;BME280;47227;46.752;23.576;2023-03-25T01:25:04;95504.92;;;11.07;45.80
61357;BME280;47227;46.752;23.576;2023-03-25T01:27:32;95504.05;;;11.03;45.67
61357;BME280;47227;46.752;23.576;2023-03-25T01:30:00;95499.55;;;11.01;45.80
61357;BME280;47227;46.752;23.576;2023-03-25T01:32:28;95496.35;;;11.00;46.36
61357;BME280;47227;46.752;23.576;2023-03-25T01:34:56;95490.20;;;11.01;46.35
61357;BME280;47227;46.752;23.576;2023-03-25T01:37:24;95487.36;;;11.02;46.82
61357;BME280;47227;46.752;23.576;2023-03-25T01:39:52;95480.95;;;11.05;46.51
61357;BME280;47227;46.752;23.576;2023-03-25T01:42:20;95477.95;;;11.05;46.82
61357;BME280;47227;46.752;23.576;2023-03-25T01:45:13;95482.25;;;11.05;47.17
61357;BME280;47227;46.752;23.576;2023-03-25T01:47:42;95482.40;;;11.08;46.82
61357;BME280;47227;46.752;23.576;2023-03-25T01:50:11;95479.50;;;11.08;46.95
61357;BME280;47227;46.752;23.576;2023-03-25T01:52:44;95481.66;;;11.07;47.14
61357;BME280;47227;46.752;23.576;2023-03-25T01:55:14;95485.85;;;11.02;47.50
61357;BME280;47227;46.752;23.576;2023-03-25T01:57:45;95481.13;;;10.98;47.01
61357;BME280;47227;46.752;23.576;2023-03-25T02:00:34;95482.67;;;10.92;47.73
61357;BME280;47227;46.752;23.576;2023-03-25T05:55:13;95403.02;;;10.43;52.70
61357;BME280;47227;46.752;23.576;2023-03-25T05:57:48;95402.64;;;10.47;52.75
61357;BME280;47227;46.752;23.576;2023-03-25T06:00:25;95398.80;;;10.47;53.21
61357;BME280;47227;46.752;23.576;2023-03-25T06:03:01;95405.20;;;10.50;52.84
61357;BME280;47227;46.752;23.576;2023-03-25T06:05:51;95403.06;;;10.59;52.52
61357;BME280;47227;46.752;23.576;2023-03-25T06:08:37;95407.15;;;10.69;52.09
61357;BME280;47227;46.752;23.576;2023-03-25T06:11:13;95395.74;;;10.78;51.88
61357;BME280;47227;46.752;23.576;2023-03-25T06:13:49;95396.55;;;10.84;52.01
61357;BME280;47227;46.752;23.576;2023-03-25T06:16:37;95404.45;;;10.90;51.62
61357;BME280;47227;46.752;23.576;2023-03-25T06:19:05;95394.92;;;10.95;51.54
61357;BME280;47227;46.752;23.576;2023-03-25T06:21:52;95400.77;;;11.01;51.45
61357;BME280;47227;46.752;23.576;2023-03-25T06:25:16;95404.42;;;11.06;51.30
61357;BME280;47227;46.752;23.576;2023-03-25T06:27:48;95403.94;;;11.08;51.12
61357;BME280;47227;46.752;23.576;2023-03-25T06:30:20;95410.49;;;11.08;51.18
61357;BME280;47227;46.752;23.576;2023-03-25T06:32:49;95412.70;;;11.09;51.14
61357;BME280;47227;46.752;23.576;2023-03-25T06:35:19;95418.31;;;11.09;51.13
61357;BME280;47227;46.752;23.576;2023-03-25T06:37:52;95423.65;;;11.10;51.15
61357;BME280;47227;46.752;23.576;2023-03-25T06:40:55;95432.09;;;11.13;51.10
61357;BME280;47227;46.752;23.576;2023-03-25T06:43:40;95434.34;;;11.16;51.17
61357;BME280;47227;46.752;23.576;2023-03-25T06:46:36;95431.74;;;11.18;51.17
61357;BME280;47227;46.752;23.576;2023-03-25T06:49:30;95425.02;;;11.22;50.90
61357;BME280;47227;46.752;23.576;2023-03-25T06:52:17;95421.84;;;11.26;51.19
61357;BME280;47227;46.752;23.576;2023-03-25T06:55:20;95427.15;;;11.32;51.04
61357;BME280;47227;46.752;23.576;2023-03-25T06:58:12;95432.45;;;11.41;51.55
61357;BME280;47227;46.752;23.576;2023-03-25T07:00:41;95429.14;;;11.49;51.14
61357;BME280;47227;46.752;23.576;2023-03-25T07:03:15;95432.14;;;11.56;51.31
61357;BME280;47227;46.752;23.576;2023-03-25T07:08:48;95438.23;;;11.71;51.48
61357;BME280;47227;46.752;23.576;2023-03-25T07:11:22;95434.35;;;11.77;51.43
61357;BME280;47227;46.752;23.576;2023-03-25T07:14:29;95433.66;;;11.85;51.85
61357;BME280;47227;46.752;23.576;2023-03-25T07:16:57;95438.14;;;11.91;51.75
61357;BME280;47227;46.752;23.576;2023-03-25T07:19:53;95442.41;;;11.98;52.33
61357;BME280;47227;46.752;23.576;2023-03-25T07:22:43;95441.00;;;12.03;52.43
61357;BME280;47227;46.752;23.576;2023-03-25T07:28:01;95449.81;;;12.12;51.75
61357;BME280;47227;46.752;23.576;2023-03-25T07:30:30;95435.55;;;12.07;51.89
61357;BME280;47227;46.752;23.576;2023-03-25T07:33:06;95436.27;;;12.08;52.17
61357;BME280;47227;46.752;23.576;2023-03-25T07:35:45;95432.34;;;12.13;51.87
61357;BME280;47227;46.752;23.576;2023-03-25T07:38:15;95433.50;;;12.19;52.05
61357;BME280;47227;46.752;23.576;2023-03-25T07:40:46;95433.45;;;12.24;52.22
61357;BME280;47227;46.752;23.576;2023-03-25T07:43:29;95435.48;;;12.26;52.05
61357;BME280;47227;46.752;23.576;2023-03-25T07:46:15;95433.54;;;12.31;51.95
61357;BME280;47227;46.752;23.576;2023-03-25T07:49:04;95429.20;;;12.38;52.02
61357;BME280;47227;46.752;23.576;2023-03-25T07:51:52;95418.89;;;12.43;52.06
61357;BME280;47227;46.752;23.576;2023-03-25T07:54:54;95425.33;;;12.47;52.01
61357;BME280;47227;46.752;23.576;2023-03-25T07:57:22;95428.53;;;12.53;51.78
61357;BME280;47227;46.752;23.576;2023-03-25T07:59:50;95430.30;;;12.59;51.84
61357;BME280;47227;46.752;23.576;2023-03-25T08:02:18;95424.09;;;12.64;51.90
61357;BME280;47227;46.752;23.576;2023-03-25T08:04:46;95424.13;;;12.70;51.90
61357;BME280;47227;46.752;23.576;2023-03-25T08:07:14;95432.69;;;12.76;51.83
61357;BME280;47227;46.752;23.576;2023-03-25T08:09:42;95433.70;;;12.83;51.92
61357;BME280;47227;46.752;23.576;2023-03-25T08:12:10;95423.58;;;12.90;51.89
61357;BME280;47227;46.752;23.576;2023-03-25T08:14:37;95431.48;;;12.96;52.05
61357;BME280;47227;46.752;23.576;2023-03-25T08:17:05;95434.27;;;13.01;52.01
61357;BME280;47227;46.752;23.576;2023-03-25T08:19:33;95434.92;;;13.08;51.82
61357;BME280;47227;46.752;23.576;2023-03-25T08:22:01;95437.98;;;13.15;51.98
61357;BME280;47227;46.752;23.576;2023-03-25T08:24:29;95439.63;;;13.23;51.80
61357;BME280;47227;46.752;23.576;2023-03-25T08:26:59;95447.98;;;13.31;51.62
61357;BME280;47227;46.752;23.576;2023-03-25T08:29:46;95436.65;;;13.38;51.50
61357;BME280;47227;46.752;23.576;2023-03-25T08:32:21;95439.14;;;13.44;51.37
61357;BME280;47227;46.752;23.576;2023-03-25T08:34:51;95433.23;;;13.52;51.31
61357;BME280;47227;46.752;23.576;2023-03-25T08:37:21;95439.08;;;13.60;51.22
61357;BME280;47227;46.752;23.576;2023-03-25T08:39:50;95446.20;;;13.63;51.35
61357;BME280;47227;46.752;23.576;2023-03-25T08:42:21;95453.17;;;13.65;51.08
61357;BME280;47227;46.752;23.576;2023-03-25T08:44:49;95455.95;;;13.70;50.84
61357;BME280;47227;46.752;23.576;2023-03-25T08:47:17;95451.81;;;13.73;50.79
61357;BME280;47227;46.752;23.576;2023-03-25T08:49:45;95444.96;;;13.73;50.79
61357;BME280;47227;46.752;23.576;2023-03-25T08:52:13;95434.71;;;13.74;50.86
61357;BME280;47227;46.752;23.576;2023-03-25T08:54:41;95436.34;;;13.77;50.68
61357;BME280;47227;46.752;23.576;2023-03-25T08:57:09;95438.56;;;13.80;50.78
61357;BME280;47227;46.752;23.576;2023-03-25T08:59:37;95440.73;;;13.86;50.66
61357;BME280;47227;46.752;23.576;2023-03-25T09:02:05;95448.34;;;13.92;50.56
61357;BME280;47227;46.752;23.576;2023-03-25T09:04:33;95448.63;;;13.97;50.51
61357;BME280;47227;46.752;23.576;2023-03-25T09:07:01;95445.54;;;13.98;50.49
61357;BME280;47227;46.752;23.576;2023-03-25T09:09:41;95441.04;;;14.00;50.65
61357;BME280;47227;46.752;23.576;2023-03-25T09:12:11;95442.44;;;14.02;50.71
61357;BME280;47227;46.752;23.576;2023-03-25T09:14:39;95435.33;;;14.04;50.56
61357;BME280;47227;46.752;23.576;2023-03-25T09:17:07;95429.98;;;14.05;50.40
61357;BME280;47227;46.752;23.576;2023-03-25T09:19:37;95431.77;;;14.05;50.14
61357;BME280;47227;46.752;23.576;2023-03-25T09:22:05;95431.61;;;13.99;50.31
61357;BME280;47227;46.752;23.576;2023-03-25T09:24:34;95433.41;;;13.99;50.30
61357;BME280;47227;46.752;23.576;2023-03-25T09:27:02;95440.61;;;14.00;50.33
61357;BME280;47227;46.752;23.576;2023-03-25T09:29:30;95445.27;;;14.02;50.36
61357;BME280;47227;46.752;23.576;2023-03-25T09:31:58;95444.08;;;14.04;50.34
61357;BME280;47227;46.752;23.576;2023-03-25T09:34:26;95444.34;;;14.08;50.21
61357;BME280;47227;46.752;23.576;2023-03-25T09:36:55;95441.01;;;14.09;50.30
61357;BME280;47227;46.752;23.576;2023-03-25T09:39:23;95438.57;;;14.10;50.26
61357;BME280;47227;46.752;23.576;2023-03-25T09:42:07;95436.77;;;14.10;50.21
61357;BME280;47227;46.752;23.576;2023-03-25T09:44:54;95431.70;;;14.10;50.23
61357;BME280;47227;46.752;23.576;2023-03-25T09:47:24;95419.72;;;14.11;50.23
61357;BME280;47227;46.752;23.576;2023-03-25T09:49:56;95410.91;;;14.11;50.23
61357;BME280;47227;46.752;23.576;2023-03-25T09:52:34;95405.25;;;14.12;50.16
61357;BME280;47227;46.752;23.576;2023-03-25T09:55:08;95411.15;;;14.15;50.47
61357;BME280;47227;46.752;23.576;2023-03-25T09:57:44;95414.17;;;14.19;50.23
61357;BME280;47227;46.752;23.576;2023-03-25T10:00:17;95406.63;;;14.23;50.24
61357;BME280;47227;46.752;23.576;2023-03-25T10:03:10;95412.75;;;14.29;50.07
61357;BME280;47227;46.752;23.576;2023-03-25T10:05:58;95413.77;;;14.31;50.09
61357;BME280;47227;46.752;23.576;2023-03-25T10:14:27;95419.80;;;14.44;50.53
61357;BME280;47227;46.752;23.576;2023-03-25T10:17:16;95416.41;;;14.34;50.64
61357;BME280;47227;46.752;23.576;2023-03-25T10:20:06;95418.48;;;14.37;50.45
61357;BME280;47227;46.752;23.576;2023-03-25T10:22:58;95413.10;;;14.47;50.15
61357;BME280;47227;46.752;23.576;2023-03-25T10:25:33;95414.61;;;14.59;50.03
61357;BME280;47227;46.752;23.576;2023-03-25T10:28:04;95409.45;;;14.66;49.90
61357;BME280;47227;46.752;23.576;2023-03-25T10:30:38;95411.45;;;14.66;50.03
61357;BME280;47227;46.752;23.576;2023-03-25T10:33:17;95411.66;;;14.66;50.01
61357;BME280;47227;46.752;23.576;2023-03-25T10:35:49;95411.96;;;14.67;49.98
61357;BME280;47227;46.752;23.576;2023-03-25T10:38:20;95414.63;;;14.71;49.96
61357;BME280;47227;46.752;23.576;2023-03-25T10:40:58;95417.16;;;14.74;49.98
61357;BME280;47227;46.752;23.576;2023-03-25T10:43:34;95409.30;;;14.63;50.64
61357;BME280;47227;46.752;23.576;2023-03-25T10:46:24;95407.84;;;14.53;50.58
61357;BME280;47227;46.752;23.576;2023-03-25T10:48:53;95405.17;;;14.48;50.76
61357;BME280;47227;46.752;23.576;2023-03-25T10:51:25;95405.39;;;14.55;50.84
61357;BME280;47227;46.752;23.576;2023-03-25T10:53:54;95397.66;;;14.53;51.14
61357;BME280;47227;46.752;23.576;2023-03-25T10:56:25;95395.34;;;14.56;50.90
61357;BME280;47227;46.752;23.576;2023-03-25T10:58:55;95394.25;;;14.63;50.51
61357;BME280;47227;46.752;23.576;2023-03-25T11:01:37;95394.61;;;14.72;50.52
61357;BME280;47227;46.752;23.576;2023-03-25T11:04:09;95391.63;;;14.81;50.49
61357;BME280;47227;46.752;23.576;2023-03-25T11:06:40;95386.59;;;14.89;50.31
61357;BME280;47227;46.752;23.576;2023-03-25T11:09:25;95385.33;;;14.97;50.14
61357;BME280;47227;46.752;23.576;2023-03-25T11:11:58;95389.49;;;15.04;50.00
61357;BME280;47227;46.752;23.576;2023-03-25T11:14:28;95383.61;;;15.08;50.08
61357;BME280;47227;46.752;23.576;2023-03-25T11:17:02;95379.39;;;15.10;49.96
61357;BME280;47227;46.752;23.576;2023-03-25T11:19:39;95375.89;;;15.11;49.85
61357;BME280;47227;46.752;23.576;2023-03-25T11:22:14;95372.67;;;15.10;49.90
61357;BME280;47227;46.752;23.576;2023-03-25T11:24:46;95369.38;;;15.12;50.00
61357;BME280;47227;46.752;23.576;2023-03-25T11:27:22;95371.17;;;15.09;49.97
61357;BME280;47227;46.752;23.576;2023-03-25T11:29:54;95370.19;;;15.13;49.91
61357;BME280;47227;46.752;23.576;2023-03-25T11:32:31;95370.66;;;15.18;49.72
61357;BME280;47227;46.752;23.576;2023-03-25T11:35:02;95365.13;;;15.03;50.26
61357;BME280;47227;46.752;23.576;2023-03-25T11:37:43;95366.66;;;15.08;50.24
61357;BME280;47227;46.752;23.576;2023-03-25T11:40:14;95364.30;;;15.19;50.12
61357;BME280;47227;46.752;23.576;2023-03-25T11:42:44;95372.77;;;15.28;49.66
61357;BME280;47227;46.752;23.576;2023-03-25T11:45:31;95375.41;;;15.31;49.20
61357;BME280;47227;46.752;23.576;2023-03-25T11:48:15;95370.33;;;15.29;49.09
61357;BME280;47227;46.752;23.576;2023-03-25T11:50:46;95375.08;;;15.22;49.13
61357;BME280;47227;46.752;23.576;2023-03-25T11:53:20;95376.14;;;15.14;49.38
61357;BME280;47227;46.752;23.576;2023-03-25T11:55:54;95373.79;;;15.08;49.72
61357;BME280;47227;46.752;23.576;2023-03-25T11:58:26;95372.35;;;15.07;49.82
61357;BME280;47227;46.752;23.576;2023-03-25T12:01:29;95372.42;;;15.07;49.91
61357;BME280;47227;46.752;23.576;2023-03-25T12:04:07;95370.46;;;15.08;49.70
61357;BME280;47227;46.752;23.576;2023-03-25T12:06:53;95370.88;;;15.06;49.57
61357;BME280;47227;46.752;23.576;2023-03-25T12:11:13;95365.41;;;15.10;49.12
61357;BME280;47227;46.752;23.576;2023-03-25T12:15:20;95368.64;;;15.09;48.56
61357;BME280;47227;46.752;23.576;2023-03-25T12:29:45;95371.05;;;14.69;48.70
61357;BME280;47227;46.752;23.576;2023-03-25T12:33:23;95365.74;;;14.55;48.72
61357;BME280;47227;46.752;23.576;2023-03-25T12:49:34;95383.48;;;13.60;56.27
61357;BME280;47227;46.752;23.576;2023-03-25T13:01:29;95385.78;;;13.30;58.43
61357;BME280;47227;46.752;23.576;2023-03-25T13:08:54;95389.14;;;13.38;58.33
61357;BME280;47227;46.752;23.576;2023-03-25T13:11:37;95392.42;;;13.41;58.54
61357;BME280;47227;46.752;23.576;2023-03-25T13:14:23;95386.95;;;13.41;58.43
61357;BME280;47227;46.752;23.576;2023-03-25T13:16:55;95392.73;;;13.45;58.13
61357;BME280;47227;46.752;23.576;2023-03-25T13:19:26;95394.04;;;13.35;57.29
61357;BME280;47227;46.752;23.576;2023-03-25T13:21:58;95398.15;;;13.34;57.08
61357;BME280;47227;46.752;23.576;2023-03-25T13:24:38;95414.50;;;13.28;57.20
61357;BME280;47227;46.752;23.576;2023-03-25T13:27:11;95412.19;;;13.07;58.46
61357;BME280;47227;46.752;23.576;2023-03-25T13:29:45;95415.25;;;12.97;58.75
61357;BME280;47227;46.752;23.576;2023-03-25T13:35:14;95408.44;;;12.79;59.10
61357;BME280;47227;46.752;23.576;2023-03-25T13:37:47;95407.45;;;12.82;58.73
61357;BME280;47227;46.752;23.576;2023-03-25T13:40:25;95404.88;;;12.90;58.46
61357;BME280;47227;46.752;23.576;2023-03-25T13:43:01;95396.80;;;13.05;57.91
61357;BME280;47227;46.752;23.576;2023-03-25T13:45:43;95398.67;;;13.22;57.43
61357;BME280;47227;46.752;23.576;2023-03-25T13:48:37;95396.34;;;13.39;56.56
61357;BME280;47227;46.752;23.576;2023-03-25T13:51:08;95397.98;;;13.52;55.49
61357;BME280;47227;46.752;23.576;2023-03-25T13:53:48;95401.00;;;13.63;54.76
61357;BME280;47227;46.752;23.576;2023-03-25T13:56:53;95394.92;;;13.73;53.75
61357;BME280;47227;46.752;23.576;2023-03-25T13:59:40;95396.61;;;13.92;52.76
61357;BME280;47227;46.752;23.576;2023-03-25T14:02:31;95395.68;;;14.51;52.19
61357;BME280;47227;46.752;23.576;2023-03-25T14:05:25;95392.77;;;15.22;50.71
61357;BME280;47227;46.752;23.576;2023-03-25T14:08:23;95399.30;;;15.54;49.51
61357;BME280;47227;46.752;23.576;2023-03-25T14:11:19;95400.22;;;15.48;48.80
61357;BME280;47227;46.752;23.576;2023-03-25T14:14:14;95402.61;;;15.33;49.11
61357;BME280;47227;46.752;23.576;2023-03-25T14:20:56;95403.86;;;14.87;49.88
61357;BME280;47227;46.752;23.576;2023-03-25T14:41:13;95399.77;;;13.90;53.48
61357;BME280;47227;46.752;23.576;2023-03-25T14:47:55;95396.64;;;14.00;53.63
61357;BME280;47227;46.752;23.576;2023-03-25T14:51:17;95395.62;;;14.16;52.87
61357;BME280;47227;46.752;23.576;2023-03-25T15:00:23;95391.66;;;14.10;53.41
61357;BME280;47227;46.752;23.576;2023-03-25T15:03:17;95399.09;;;14.20;52.88
61357;BME280;47227;46.752;23.576;2023-03-25T15:06:16;95398.18;;;14.30;52.64
61357;BME280;47227;46.752;23.576;2023-03-25T15:09:16;95401.15;;;14.42;52.63
61357;BME280;47227;46.752;23.576;2023-03-25T15:12:17;95407.70;;;14.39;53.10
61357;BME280;47227;46.752;23.576;2023-03-25T15:20:41;95410.47;;;14.35;52.78
61357;BME280;47227;46.752;23.576;2023-03-25T15:30:01;95413.59;;;14.24;52.46
61357;BME280;47227;46.752;23.576;2023-03-25T15:38:48;95420.71;;;14.43;47.76
61357;BME280;47227;46.752;23.576;2023-03-25T15:44:54;95408.99;;;16.17;44.09
61357;BME280;47227;46.752;23.576;2023-03-25T15:50:55;95415.59;;;17.56;40.44
61357;BME280;47227;46.752;23.576;2023-03-25T15:53:49;95418.77;;;17.13;39.92
61357;BME280;47227;46.752;23.576;2023-03-25T15:56:31;95415.50;;;16.60;40.64
61357;BME280;47227;46.752;23.576;2023-03-25T16:02:25;95412.98;;;15.40;42.54
61357;BME280;47227;46.752;23.576;2023-03-25T16:05:13;95416.73;;;14.95;43.91
61357;BME280;47227;46.752;23.576;2023-03-25T16:08:10;95415.83;;;14.64;45.76
61357;BME280;47227;46.752;23.576;2023-03-25T16:14:20;95423.50;;;13.69;47.89
61357;BME280;47227;46.752;23.576;2023-03-25T16:17:29;95435.09;;;13.45;47.40
61357;BME280;47227;46.752;23.576;2023-03-25T17:11:14;95434.13;;;11.16;55.95
61357;BME280;47227;46.752;23.576;2023-03-25T17:13:46;95437.55;;;11.12;55.77
61357;BME280;47227;46.752;23.576;2023-03-25T17:16:17;95443.21;;;11.06;55.60
61357;BME280;47227;46.752;23.576;2023-03-25T17:18:48;95443.65;;;11.01;55.81
61357;BME280;47227;46.752;23.576;2023-03-25T17:21:23;95447.66;;;10.95;55.71
61357;BME280;47227;46.752;23.576;2023-03-25T17:23:55;95448.11;;;10.91;55.57
61357;BME280;47227;46.752;23.576;2023-03-25T17:26:25;95449.32;;;10.86;55.73
61357;BME280;47227;46.752;23.576;2023-03-25T17:28:58;95450.50;;;10.82;55.50
61357;BME280;47227;46.752;23.576;2023-03-25T17:31:33;95452.61;;;10.76;56.12
61357;BME280;47227;46.752;23.576;2023-03-25T17:34:18;95456.94;;;10.72;55.70
61357;BME280;47227;46.752;23.576;2023-03-25T17:36:48;95454.75;;;10.65;56.12
61357;BME280;47227;46.752;23.576;2023-03-25T17:39:26;95453.88;;;10.60;55.95
61357;BME280;47227;46.752;23.576;2023-03-25T17:42:00;95455.04;;;10.55;58.06
61357;BME280;47227;46.752;23.576;2023-03-25T17:44:39;95456.90;;;10.51;58.83
61357;BME280;47227;46.752;23.576;2023-03-25T17:47:13;95457.63;;;10.50;58.71
61357;BME280;47227;46.752;23.576;2023-03-25T17:49:42;95456.33;;;10.47;57.69
61357;BME280;47227;46.752;23.576;2023-03-25T17:52:10;95453.98;;;10.45;60.26
61357;BME280;47227;46.752;23.576;2023-03-25T17:54:38;95456.27;;;10.45;61.25
61357;BME280;47227;46.752;23.576;2023-03-25T17:57:11;95457.84;;;10.48;61.44
61357;BME280;47227;46.752;23.576;2023-03-25T17:59:41;95458.48;;;10.49;61.57
61357;BME280;47227;46.752;23.576;2023-03-25T18:02:10;95457.42;;;10.51;61.20
61357;BME280;47227;46.752;23.576;2023-03-25T18:04:38;95457.79;;;10.51;60.16
61357;BME280;47227;46.752;23.576;2023-03-25T18:07:07;95461.36;;;10.49;59.65
61357;BME280;47227;46.752;23.576;2023-03-25T18:09:35;95462.77;;;10.46;59.38
61357;BME280;47227;46.752;23.576;2023-03-25T18:12:04;95470.02;;;10.44;59.16
61357;BME280;47227;46.752;23.576;2023-03-25T18:14:32;95470.97;;;10.38;59.04
61357;BME280;47227;46.752;23.576;2023-03-25T18:17:01;95473.49;;;10.33;58.78
61357;BME280;47227;46.752;23.576;2023-03-25T18:19:30;95465.21;;;10.28;58.78
61357;BME280;47227;46.752;23.576;2023-03-25T18:21:59;95466.56;;;10.25;58.77
61357;BME280;47227;46.752;23.576;2023-03-25T18:24:37;95473.64;;;10.24;58.61
61357;BME280;47227;46.752;23.576;2023-03-25T18:27:05;95477.30;;;10.23;58.94
61357;BME280;47227;46.752;23.576;2023-03-25T18:29:34;95476.94;;;10.22;58.96
61357;BME280;47227;46.752;23.576;2023-03-25T18:32:03;95473.89;;;10.22;58.86
61357;BME280;47227;46.752;23.576;2023-03-25T18:34:31;95479.87;;;10.23;58.81
61357;BME280;47227;46.752;23.576;2023-03-25T18:37:01;95479.23;;;10.24;59.34
61357;BME280;47227;46.752;23.576;2023-03-25T18:39:30;95477.30;;;10.26;59.35
61357;BME280;47227;46.752;23.576;2023-03-25T18:41:58;95477.88;;;10.26;59.37
61357;BME280;47227;46.752;23.576;2023-03-25T18:44:26;95478.04;;;10.25;59.23
61357;BME280;47227;46.752;23.576;2023-03-25T18:46:57;95473.42;;;10.24;59.23
61357;BME280;47227;46.752;23.576;2023-03-25T18:49:25;95467.55;;;10.27;59.99
61357;BME280;47227;46.752;23.576;2023-03-25T18:51:54;95468.10;;;10.29;59.66
61357;BME280;47227;46.752;23.576;2023-03-25T18:54:25;95473.45;;;10.33;59.80
61357;BME280;47227;46.752;23.576;2023-03-25T18:56:53;95480.52;;;10.35;59.59
61357;BME280;47227;46.752;23.576;2023-03-25T18:59:21;95477.52;;;10.37;59.47
61357;BME280;47227;46.752;23.576;2023-03-25T19:01:49;95481.55;;;10.39;59.29
61357;BME280;47227;46.752;23.576;2023-03-25T19:04:17;95486.37;;;10.39;61.20
61357;BME280;47227;46.752;23.576;2023-03-25T19:06:45;95492.30;;;10.40;60.75
61357;BME280;47227;46.752;23.576;2023-03-25T19:09:15;95491.61;;;10.42;60.26
61357;BME280;47227;46.752;23.576;2023-03-25T19:11:49;95491.92;;;10.45;59.83
61357;BME280;47227;46.752;23.576;2023-03-25T19:14:17;95499.17;;;10.40;62.58
61357;BME280;47227;46.752;23.576;2023-03-25T19:16:45;95499.25;;;10.30;62.97
61357;BME280;47227;46.752;23.576;2023-03-25T19:19:16;95493.30;;;10.28;62.72
61357;BME280;47227;46.752;23.576;2023-03-25T19:21:44;95495.20;;;10.28;62.63
61357;BME280;47227;46.752;23.576;2023-03-25T19:24:12;95499.55;;;10.29;62.23
61357;BME280;47227;46.752;23.576;2023-03-25T19:26:40;95504.42;;;10.29;64.27
61357;BME280;47227;46.752;23.576;2023-03-25T19:29:10;95508.56;;;10.28;63.58
61357;BME280;47227;46.752;23.576;2023-03-25T19:31:38;95510.70;;;10.28;64.56
61357;BME280;47227;46.752;23.576;2023-03-25T19:34:09;95509.86;;;10.27;62.97
61357;BME280;47227;46.752;23.576;2023-03-25T19:36:37;95507.31;;;10.28;63.23
61357;BME280;47227;46.752;23.576;2023-03-25T19:39:05;95513.30;;;10.29;62.34
61357;BME280;47227;46.752;23.576;2023-03-25T19:41:33;95510.56;;;10.29;61.97
61357;BME280;47227;46.752;23.576;2023-03-25T21:49:42;95493.56;;;9.86;65.90
61357;BME280;47227;46.752;23.576;2023-03-25T21:52:10;95490.31;;;9.85;65.94
61357;BME280;47227;46.752;23.576;2023-03-25T21:54:39;95491.79;;;9.84;66.23
61357;BME280;47227;46.752;23.576;2023-03-25T21:57:15;95495.02;;;9.83;66.14
61357;BME280;47227;46.752;23.576;2023-03-25T21:59:43;95497.23;;;9.82;66.23
61357;BME280;47227;46.752;23.576;2023-03-25T22:02:11;95501.09;;;9.80;66.15
61357;BME280;47227;46.752;23.576;2023-03-25T22:04:41;95500.69;;;9.80;66.50
61357;BME280;47227;46.752;23.576;2023-03-25T22:07:13;95503.35;;;9.79;66.39
61357;BME280;47227;46.752;23.576;2023-03-25T22:09:42;95503.40;;;9.82;66.22
61357;BME280;47227;46.752;23.576;2023-03-25T22:12:10;95507.02;;;9.84;66.15
61357;BME280;47227;46.752;23.576;2023-03-25T22:14:40;95517.66;;;9.88;65.95
61357;BME280;47227;46.752;23.576;2023-03-25T22:17:08;95516.14;;;9.89;65.23
61357;BME280;47227;46.752;23.576;2023-03-25T22:19:39;95523.53;;;9.91;65.68
61357;BME280;47227;46.752;23.576;2023-03-25T22:22:07;95530.60;;;9.91;65.75
61357;BME280;47227;46.752;23.576;2023-03-25T22:24:37;95553.23;;;9.88;64.22
61357;BME280;47227;46.752;23.576;2023-03-25T22:27:08;95544.93;;;9.81;62.89
61357;BME280;47227;46.752;23.576;2023-03-25T22:29:37;95544.42;;;9.77;63.32
61357;BME280;47227;46.752;23.576;2023-03-25T22:32:06;95547.23;;;9.74;63.55